Sumatra, MT (59083)

9:21 PM MDT on August 31, 2015 (GMT -0600)
Melstone | | Change Station
CLOSE
Current Station
Personal Weather Station
Location: Melstone, MT
Elevation: 2917 ft
Nearby Weather Stations

Elev 2917 ft 46.60 °N, 107.87 °W | Updated 11 minutes ago

Clear
Clear
67.5 °F
Feels Like 67.5 °F
N
3.0
Wind Variable Wind from NE
Gusts 5.0 mph

Today
High -- | Low -- °F
--% Chance of Precip.
Yesterday
High -- | Low -- °F
Precip. -- in
6:28 AM 7:51 PM
Waning Gibbous, 92% visible
Pressure 29.82 in
Visibility 10.0 miles
Clouds Few 11000 ft
Few 18000 ft
Dew Point 37 °F
Humidity 32%
Rainfall 0.00 in
Snow Depth Not available.
UV 0 out of 12
Pollen 8.80 out of 12
Air Quality Not available.
Flu Activity Not available.
METAR KBIL 010253Z 06004KT 10SM FEW110 FEW180 23/M01 A2990 RMK AO2 SLP098 T02331011 53005
Pressure 29.82 in
Visibility 10.0 miles
Clouds Few 11000 ft
Few 18000 ft
Dew Point 37 °F
Humidity 32%
Rainfall 0.00 in
Snow Depth Not available.
UV 0 out of 12
Pollen 8.80 out of 12
Air Quality Not available.
Flu Activity Not available.
METAR KBIL 010253Z 06004KT 10SM FEW110 FEW180 23/M01 A2990 RMK AO2 SLP098 T02331011 53005

10-Day Weather Forecast

×

Almanac

Astronomy

Aug. 31, 2015 Rise Set
Actual Time
Civil Twilight
Nautical Twilight
Astronomical Twilight
Moon
Length of Visible Light
Length of Day
Tomorrow will be .
, % of the Moon is Illuminated

Today's Extremes

State Highs State Lows

Community

WunderPhotos

Upload Photos

1,851,474 photos uploaded!

WunderBlogs® & News

Nearby

Air Quality

  Air Quality AQ Index Pollutant
Not available.

Snow Depth

Station Depth Elevation

Earthquake Activity

City Distance Mag. Time & Date
Minimum magnitude displayed is 2.5.

Coastal Water Temperatures

Place Temperature

Stations

Nearby Weather Stations

Station Location Temp. Windchill Dew Point Humidity Wind Precip. Elev Updated Type